createdAt,value
2019-05-18T00:02:08.678Z,11.45
2019-05-18T00:04:39.057Z,11.43
2019-05-18T00:07:09.755Z,11.43
2019-05-18T00:09:40.519Z,11.38
2019-05-18T00:12:11.511Z,11.32
2019-05-18T00:14:41.930Z,11.31
2019-05-18T00:17:24.570Z,11.25
2019-05-18T00:19:45.862Z,11.22
2019-05-18T00:22:17.201Z,11.17
2019-05-18T00:24:47.561Z,11.13
2019-05-18T00:27:21.211Z,11.17
2019-05-18T00:29:51.552Z,11.08
2019-05-18T00:32:25.245Z,11.03
2019-05-18T00:34:55.567Z,10.98
2019-05-18T00:37:26.949Z,10.96
2019-05-18T00:39:57.304Z,10.98
2019-05-18T00:42:28.848Z,10.92
2019-05-18T00:44:59.213Z,10.89
2019-05-18T00:47:40.861Z,10.84
2019-05-18T00:50:01.677Z,10.81
2019-05-18T00:52:34.892Z,10.85
2019-05-18T00:55:08.109Z,10.87
2019-05-18T00:57:38.719Z,10.89
2019-05-18T01:00:10.467Z,10.90
2019-05-18T01:02:43.731Z,10.89
2019-05-18T01:05:14.721Z,10.85
2019-05-18T01:07:46.056Z,10.88
2019-05-18T01:10:16.798Z,10.88
2019-05-18T01:12:48.433Z,10.99
2019-05-18T01:15:19.772Z,11.04
2019-05-18T01:17:57.473Z,11.02
2019-05-18T01:20:24.742Z,11.12
2019-05-18T01:22:55.366Z,11.16
2019-05-18T01:25:25.732Z,11.17
2019-05-18T01:27:57.665Z,11.21
2019-05-18T01:30:28.316Z,11.22
2019-05-18T01:33:01.160Z,11.22
2019-05-18T01:35:31.497Z,11.28
2019-05-18T01:38:04.061Z,11.27
2019-05-18T01:40:34.547Z,11.28
2019-05-18T01:43:05.438Z,11.30
2019-05-18T01:45:36.068Z,11.38
2019-05-18T01:48:13.969Z,11.34
2019-05-18T01:50:38.624Z,11.35
2019-05-18T01:53:09.697Z,11.24
2019-05-18T01:55:40.178Z,11.24
2019-05-18T01:58:12.056Z,11.17
2019-05-18T02:00:42.314Z,11.13
2019-05-18T02:03:14.263Z,11.18
2019-05-18T02:05:44.770Z,11.15
2019-05-18T02:08:15.609Z,11.18
2019-05-18T02:10:46.131Z,11.14
2019-05-18T02:13:18.495Z,11.16
2019-05-18T02:15:48.926Z,11.14
2019-05-18T02:18:28.781Z,11.19
2019-05-18T02:20:51.634Z,11.23
2019-05-18T02:23:24.914Z,11.21
2019-05-18T02:25:55.284Z,11.25
2019-05-18T02:28:27.256Z,11.28
2019-05-18T02:30:57.504Z,11.29
2019-05-18T02:33:29.276Z,11.24
2019-05-18T02:35:59.606Z,11.19
2019-05-18T02:38:30.019Z,11.16
2019-05-18T02:41:00.278Z,11.20
2019-05-18T02:43:31.897Z,11.16
2019-05-18T02:46:02.560Z,11.15
2019-05-18T02:48:48.871Z,11.17
2019-05-18T02:51:06.192Z,11.12
2019-05-18T02:53:36.793Z,11.17
2019-05-18T02:56:07.497Z,11.16
2019-05-18T02:58:38.133Z,11.27
2019-05-18T03:01:08.481Z,11.16
2019-05-18T03:03:39.126Z,11.08
2019-05-18T03:06:09.864Z,11.20
2019-05-18T03:08:40.555Z,11.11
2019-05-18T03:11:10.888Z,11.07
2019-05-18T03:13:43.853Z,11.04
2019-05-18T03:16:14.247Z,11.00
2019-05-18T03:18:45.512Z,10.98
2019-05-18T03:21:16.266Z,10.93
2019-05-18T03:23:47.728Z,10.92
2019-05-18T03:26:18.079Z,10.94
2019-05-18T03:28:49.700Z,10.87
2019-05-18T03:31:19.991Z,10.85
2019-05-18T03:33:51.675Z,10.81
2019-05-18T03:36:22.018Z,10.78
2019-05-18T03:38:52.386Z,10.75
2019-05-18T03:41:23.142Z,10.68
2019-05-18T03:43:54.808Z,10.63
2019-05-18T03:46:25.134Z,10.65
2019-05-18T03:48:55.503Z,10.65
2019-05-18T03:51:25.862Z,10.62
2019-05-18T03:53:57.119Z,10.68
2019-05-18T03:56:27.440Z,10.62
2019-05-18T03:58:57.735Z,10.52
2019-05-18T04:01:28.665Z,10.48
2019-05-18T04:04:00.746Z,10.41
2019-05-18T04:06:32.111Z,10.40
2019-05-18T04:09:02.440Z,10.38
2019-05-18T04:11:32.959Z,10.31
2019-05-18T04:14:07.874Z,10.28
2019-05-18T04:16:35.760Z,10.31
2019-05-18T04:19:06.085Z,10.24
2019-05-18T04:21:36.911Z,10.23
2019-05-18T04:24:07.429Z,10.23
2019-05-18T04:26:38.465Z,10.18
2019-05-18T04:29:10.328Z,10.19
2019-05-18T04:31:43.893Z,10.30
2019-05-18T04:34:14.344Z,10.28
2019-05-18T04:36:44.673Z,10.24
2019-05-18T04:39:15.198Z,10.20
2019-05-18T04:41:45.696Z,10.16
2019-05-18T04:44:16.598Z,10.20
2019-05-18T04:46:46.885Z,10.18
2019-05-18T04:49:18.565Z,10.21
2019-05-18T04:51:49.130Z,10.23
2019-05-18T04:54:19.767Z,10.28
2019-05-18T04:56:50.019Z,10.34
2019-05-18T04:59:20.462Z,10.40
2019-05-18T05:01:52.689Z,10.45
2019-05-18T05:04:24.166Z,10.56
2019-05-18T05:06:54.495Z,10.69
2019-05-18T05:09:26.503Z,10.81
2019-05-18T05:11:56.970Z,10.92
2019-05-18T05:14:28.835Z,11.05
2019-05-18T05:16:59.152Z,11.14
2019-05-18T05:19:29.888Z,11.25
2019-05-18T05:22:00.596Z,11.38
2019-05-18T05:24:31.490Z,11.50
2019-05-18T05:27:02.460Z,11.71
2019-05-18T05:29:32.817Z,11.89
2019-05-18T05:32:04.468Z,12.06
2019-05-18T05:34:36.086Z,12.17
2019-05-18T05:37:06.448Z,12.21
2019-05-18T05:39:37.975Z,12.22
2019-05-18T05:42:08.301Z,12.31
2019-05-18T05:44:39.804Z,12.44
2019-05-18T05:47:10.161Z,12.40
2019-05-18T05:49:40.825Z,12.50
2019-05-18T05:52:11.563Z,12.56
2019-05-18T05:54:43.857Z,12.61
2019-05-18T05:57:15.383Z,12.75
2019-05-18T05:59:45.802Z,12.92
2019-05-18T06:02:16.140Z,13.00
2019-05-18T06:04:47.396Z,13.09
2019-05-18T06:07:17.762Z,13.09
2019-05-18T06:09:48.941Z,13.12
2019-05-18T06:12:20.668Z,13.28
2019-05-18T06:14:51.657Z,13.43
2019-05-18T06:17:22.062Z,13.52
2019-05-18T06:19:53.608Z,13.61
2019-05-18T06:22:24.338Z,13.76
2019-05-18T06:24:57.124Z,13.76
2019-05-18T06:27:27.544Z,13.77
2019-05-18T06:29:59.330Z,13.88
2019-05-18T06:32:29.755Z,13.93
2019-05-18T06:35:00.151Z,14.05
2019-05-18T06:37:30.411Z,14.12
2019-05-18T06:40:00.792Z,14.02
2019-05-18T06:42:31.557Z,13.96
2019-05-18T06:45:01.846Z,13.94
2019-05-18T06:47:32.705Z,13.87
2019-05-18T06:50:03.708Z,13.78
2019-05-18T06:52:35.023Z,13.81
2019-05-18T06:55:06.410Z,13.92
2019-05-18T06:57:38.483Z,13.83
2019-05-18T07:00:14.343Z,13.88
2019-05-18T07:02:45.741Z,13.95
2019-05-18T07:05:16.717Z,13.83
2019-05-18T07:07:48.171Z,13.93
2019-05-18T07:10:18.538Z,13.86
2019-05-18T07:12:48.830Z,13.76
2019-05-18T07:15:21.193Z,13.87
2019-05-18T07:17:58.024Z,13.85
2019-05-18T07:20:28.471Z,13.78
2019-05-18T07:22:58.807Z,13.84
2019-05-18T07:25:29.764Z,13.92
2019-05-18T07:28:01.739Z,13.96
2019-05-18T07:30:32.585Z,13.94
2019-05-18T07:33:02.953Z,14.08
2019-05-18T07:35:33.595Z,14.20
2019-05-18T07:38:03.923Z,14.25
2019-05-18T07:40:34.670Z,14.52
2019-05-18T07:43:04.999Z,14.85
2019-05-18T07:45:35.306Z,14.85
2019-05-18T07:48:06.234Z,14.91
2019-05-18T07:50:37.079Z,15.14
2019-05-18T07:53:09.092Z,15.29
2019-05-18T07:55:39.668Z,15.63
2019-05-18T07:58:11.715Z,16.04
2019-05-18T08:00:42.981Z,16.71
2019-05-18T08:03:13.303Z,17.43
2019-05-18T08:05:43.814Z,18.16
2019-05-18T08:08:14.365Z,18.70
2019-05-18T08:10:45.017Z,18.63
2019-05-18T08:13:15.511Z,18.64
2019-05-18T08:15:46.953Z,18.65
2019-05-18T08:18:18.408Z,18.38
2019-05-18T08:20:48.783Z,19.12
2019-05-18T08:23:19.365Z,20.20
2019-05-18T08:25:49.734Z,20.99
2019-05-18T08:28:22.448Z,21.63
2019-05-18T08:30:55.634Z,22.13
2019-05-18T08:33:26.029Z,22.52
2019-05-18T08:35:57.542Z,22.30
2019-05-18T08:38:28.034Z,21.76
2019-05-18T08:40:59.906Z,21.67
2019-05-18T08:43:30.456Z,21.56
2019-05-18T08:46:00.866Z,21.41
2019-05-18T08:48:31.621Z,21.12
2019-05-18T08:51:02.943Z,21.30
2019-05-18T08:53:33.831Z,21.44
2019-05-18T08:56:04.185Z,21.27
2019-05-18T08:58:35.244Z,21.27
2019-05-18T09:01:05.841Z,21.18
2019-05-18T09:03:36.246Z,21.02
2019-05-18T09:06:06.518Z,21.01
2019-05-18T09:08:37.042Z,20.98
2019-05-18T09:11:08.195Z,21.32
2019-05-18T09:13:38.591Z,21.88
2019-05-18T09:16:09.103Z,22.33
2019-05-18T09:18:39.686Z,22.98
2019-05-18T09:21:11.139Z,23.74
2019-05-18T09:23:42.006Z,23.89
2019-05-18T09:26:12.254Z,24.31
2019-05-18T09:28:45.772Z,24.99
2019-05-18T09:31:17.663Z,25.25
2019-05-18T09:33:48.464Z,25.63
2019-05-18T09:36:19.485Z,25.39
2019-05-18T09:38:49.767Z,24.32
2019-05-18T09:41:20.392Z,24.47
2019-05-18T09:43:51.475Z,24.84
2019-05-18T09:46:21.968Z,25.48
2019-05-18T09:48:52.990Z,25.26
2019-05-18T09:51:24.116Z,25.12
2019-05-18T09:53:55.438Z,25.03
2019-05-18T09:56:25.764Z,24.47
2019-05-18T09:58:56.144Z,24.07
2019-05-18T10:01:27.369Z,24.48
2019-05-18T10:03:57.697Z,24.61
2019-05-18T10:06:31.539Z,24.40
2019-05-18T10:09:04.947Z,24.04
2019-05-18T10:11:38.526Z,23.62
2019-05-18T10:14:10.108Z,23.53
2019-05-18T10:16:40.533Z,23.47
2019-05-18T10:19:11.101Z,23.35
2019-05-18T10:21:41.592Z,22.83
2019-05-18T10:24:12.104Z,22.42
2019-05-18T10:26:42.439Z,22.45
2019-05-18T10:29:12.828Z,23.06
2019-05-18T10:31:43.412Z,22.93
2019-05-18T10:34:14.829Z,22.66
2019-05-18T10:36:46.311Z,22.52
2019-05-18T10:39:17.240Z,22.95
2019-05-18T10:41:47.704Z,23.68
2019-05-18T10:44:19.303Z,24.33
2019-05-18T10:46:49.593Z,24.33
2019-05-18T10:49:20.359Z,23.83
2019-05-18T10:51:51.602Z,23.39
2019-05-18T10:54:23.123Z,23.04
2019-05-18T10:56:53.789Z,22.72
2019-05-18T10:59:24.121Z,23.21
2019-05-18T11:01:55.079Z,23.82
2019-05-18T11:04:29.094Z,24.29
2019-05-18T11:07:01.523Z,24.66
2019-05-18T11:09:31.787Z,24.73
2019-05-18T11:12:04.755Z,24.21
2019-05-18T11:14:36.160Z,24.14
2019-05-18T11:17:07.998Z,24.27
2019-05-18T11:19:38.358Z,24.11
2019-05-18T11:22:08.666Z,23.85
2019-05-18T11:24:40.032Z,23.94
2019-05-18T11:27:11.645Z,24.16
2019-05-18T11:29:41.974Z,23.70
2019-05-18T11:32:13.614Z,23.68
2019-05-18T11:34:44.383Z,23.39
2019-05-18T11:37:15.537Z,23.15
2019-05-18T11:39:45.858Z,22.62
2019-05-18T11:42:17.016Z,22.62
2019-05-18T11:44:48.616Z,22.30
2019-05-18T11:47:19.126Z,22.34
2019-05-18T11:49:49.745Z,22.39
2019-05-18T11:52:21.990Z,22.31
2019-05-18T11:54:53.209Z,22.34
2019-05-18T11:57:23.796Z,22.47
2019-05-18T11:59:54.586Z,22.84
2019-05-18T12:02:25.010Z,23.14
2019-05-18T12:04:55.636Z,23.30
2019-05-18T12:07:28.243Z,23.21
2019-05-18T12:09:58.646Z,22.84
2019-05-18T12:12:29.688Z,22.37
2019-05-18T12:15:00.005Z,21.94
2019-05-18T12:17:30.941Z,21.45
2019-05-18T12:20:01.251Z,21.03
2019-05-18T12:22:32.399Z,20.79
2019-05-18T12:25:04.168Z,20.58
2019-05-18T12:27:34.952Z,20.63
2019-05-18T12:30:10.334Z,20.70
2019-05-18T12:32:42.537Z,20.58
2019-05-18T12:35:13.775Z,20.72
2019-05-18T12:37:45.096Z,20.86
2019-05-18T12:40:18.622Z,21.03
2019-05-18T12:42:50.552Z,21.22
2019-05-18T12:45:22.358Z,21.51
2019-05-18T12:47:53.045Z,21.93
2019-05-18T12:50:24.823Z,22.07
2019-05-18T12:52:55.338Z,22.21
2019-05-18T12:55:26.133Z,22.33
2019-05-18T12:57:56.998Z,22.40
2019-05-18T13:00:27.705Z,22.19
2019-05-18T13:02:58.440Z,22.29
2019-05-18T13:05:30.390Z,22.22
2019-05-18T13:08:04.014Z,22.26
2019-05-18T13:10:35.322Z,22.30
2019-05-18T13:13:06.097Z,22.27
2019-05-18T13:15:37.232Z,22.14
2019-05-18T13:18:07.671Z,22.07
2019-05-18T13:20:37.994Z,22.00
2019-05-18T13:23:08.720Z,21.97
2019-05-18T13:25:38.959Z,22.01
2019-05-18T13:28:09.278Z,22.00
2019-05-18T13:30:39.696Z,22.09
2019-05-18T13:33:10.550Z,22.01
2019-05-18T13:35:45.260Z,22.12
2019-05-18T13:38:14.505Z,22.13
2019-05-18T13:40:44.836Z,21.97
2019-05-18T13:43:15.807Z,21.87
2019-05-18T13:45:46.307Z,21.74
2019-05-18T13:48:17.055Z,21.80
2019-05-18T13:50:47.388Z,21.86
2019-05-18T13:53:18.179Z,21.77
2019-05-18T13:55:50.173Z,21.78
2019-05-18T13:58:20.537Z,21.55
2019-05-18T14:00:53.915Z,21.62
2019-05-18T14:03:24.206Z,21.51
2019-05-18T14:05:54.811Z,21.37
2019-05-18T14:08:26.512Z,21.48
2019-05-18T14:10:56.928Z,21.26
2019-05-18T14:13:27.222Z,21.22
2019-05-18T14:15:57.506Z,20.95
2019-05-18T14:18:27.813Z,20.41
2019-05-18T14:20:58.101Z,20.35
2019-05-18T14:23:29.035Z,20.30
2019-05-18T14:25:59.847Z,20.33
2019-05-18T14:28:31.311Z,20.47
2019-05-18T14:31:02.274Z,20.87
2019-05-18T14:33:34.658Z,20.99
2019-05-18T14:36:05.686Z,21.11
2019-05-18T14:38:36.047Z,21.25
2019-05-18T14:41:06.442Z,21.17
2019-05-18T14:43:40.365Z,21.23
2019-05-18T14:46:10.585Z,21.08
2019-05-18T14:48:40.860Z,20.75
2019-05-18T14:51:11.641Z,20.74
2019-05-18T14:53:42.033Z,20.75
2019-05-18T14:56:12.670Z,20.77
2019-05-18T14:58:43.403Z,20.81
2019-05-18T15:01:15.277Z,20.79
2019-05-18T15:03:45.719Z,20.82
2019-05-18T15:06:16.010Z,20.63
2019-05-18T15:08:48.177Z,20.58
2019-05-18T15:11:18.489Z,20.50
2019-05-18T15:13:49.480Z,20.38
2019-05-18T15:16:20.253Z,20.14
2019-05-18T15:18:51.532Z,19.76
2019-05-18T15:21:21.763Z,19.43
2019-05-18T15:23:52.477Z,19.31
2019-05-18T15:26:23.973Z,19.17
2019-05-18T15:28:54.460Z,19.35
2019-05-18T15:31:24.940Z,19.35
2019-05-18T15:33:56.419Z,19.46
2019-05-18T15:36:26.735Z,19.52
2019-05-18T15:38:57.831Z,19.67
2019-05-18T15:41:28.140Z,19.72
2019-05-18T15:43:59.423Z,19.76
2019-05-18T15:46:29.762Z,19.93
2019-05-18T15:49:00.813Z,20.02
2019-05-18T15:51:31.340Z,20.02
2019-05-18T15:54:02.481Z,19.82
2019-05-18T15:56:32.803Z,19.79
2019-05-18T15:59:03.240Z,19.72
2019-05-18T16:01:33.559Z,19.71
2019-05-18T16:04:06.558Z,19.63
2019-05-18T16:06:36.626Z,19.68
2019-05-18T16:09:08.210Z,19.62
2019-05-18T16:11:39.170Z,19.46
2019-05-18T16:14:11.757Z,19.36
2019-05-18T16:16:42.151Z,19.33
2019-05-18T16:19:13.017Z,19.13
2019-05-18T16:21:43.336Z,19.01
2019-05-18T16:24:14.080Z,18.87
2019-05-18T16:26:44.469Z,18.82
2019-05-18T16:29:14.810Z,18.70
2019-05-18T16:31:45.223Z,18.75
2019-05-18T16:34:17.739Z,18.73
2019-05-18T16:36:48.273Z,18.50
2019-05-18T16:39:20.287Z,18.51
2019-05-18T16:41:50.535Z,18.57
2019-05-18T16:44:21.437Z,18.79
2019-05-18T16:46:52.368Z,18.83
2019-05-18T16:49:23.448Z,18.81
2019-05-18T16:51:53.783Z,19.09
2019-05-18T16:54:24.517Z,19.27
2019-05-18T16:56:54.861Z,19.33
2019-05-18T16:59:25.440Z,19.45
2019-05-18T17:01:55.841Z,19.45
2019-05-18T17:04:27.211Z,19.58
2019-05-18T17:06:57.770Z,19.42
2019-05-18T17:09:28.603Z,19.24
2019-05-18T17:11:58.951Z,19.14
2019-05-18T17:14:31.063Z,19.04
2019-05-18T17:17:01.379Z,18.98
2019-05-18T17:19:31.762Z,18.89
2019-05-18T17:22:02.119Z,18.89
2019-05-18T17:24:33.525Z,18.91
2019-05-18T17:27:03.919Z,18.38
2019-05-18T17:29:34.306Z,18.29
2019-05-18T17:32:04.993Z,18.15
2019-05-18T17:34:36.811Z,17.78
2019-05-18T17:37:07.231Z,17.84
2019-05-18T17:39:41.251Z,17.73
2019-05-18T17:42:12.622Z,17.64
2019-05-18T17:44:46.072Z,17.39
2019-05-18T17:47:16.903Z,17.18
2019-05-18T17:49:48.585Z,17.14
2019-05-18T17:52:19.258Z,17.16
2019-05-18T17:54:50.760Z,17.10
2019-05-18T17:57:21.681Z,17.14
2019-05-18T17:59:54.674Z,17.03
2019-05-18T18:02:24.996Z,17.07
2019-05-18T18:04:56.240Z,16.95
2019-05-18T18:07:26.572Z,16.73
2019-05-18T18:09:58.634Z,16.63
2019-05-18T18:12:28.969Z,16.63
2019-05-18T18:14:59.344Z,16.71
2019-05-18T18:17:30.023Z,16.93
2019-05-18T18:20:00.428Z,16.93
2019-05-18T18:22:30.843Z,16.90
2019-05-18T18:25:03.025Z,16.85
2019-05-18T18:27:33.853Z,16.69
2019-05-18T18:30:06.936Z,16.69
2019-05-18T18:32:38.078Z,16.62
2019-05-18T18:35:13.169Z,16.51
2019-05-18T18:37:43.499Z,16.41
2019-05-18T18:40:14.501Z,16.03
2019-05-18T18:42:46.126Z,16.10
2019-05-18T18:45:19.252Z,15.93
2019-05-18T18:47:49.600Z,16.05
2019-05-18T18:50:25.253Z,15.92
2019-05-18T18:52:55.683Z,15.80
2019-05-18T18:55:26.250Z,15.56
2019-05-18T18:57:56.563Z,15.50
2019-05-18T19:00:27.443Z,15.45
2019-05-18T19:02:57.788Z,15.46
2019-05-18T19:05:28.742Z,15.57
2019-05-18T19:07:59.495Z,15.65
2019-05-18T19:10:31.577Z,15.62
2019-05-18T19:13:01.908Z,15.60
2019-05-18T19:15:33.855Z,15.47
2019-05-18T19:18:04.570Z,15.33
2019-05-18T19:20:35.606Z,15.24
2019-05-18T19:23:06.175Z,15.27
2019-05-18T19:25:39.016Z,15.37
2019-05-18T19:28:09.279Z,15.19
2019-05-18T19:30:39.676Z,15.18
2019-05-18T19:33:10.347Z,15.37
2019-05-18T19:35:43.018Z,15.42
2019-05-18T19:38:13.440Z,15.26
2019-05-18T19:40:44.372Z,15.23
2019-05-18T19:43:15.976Z,15.11
2019-05-18T19:45:46.981Z,14.95
2019-05-18T19:48:17.764Z,14.80
2019-05-18T19:50:48.107Z,14.85
2019-05-18T19:53:18.887Z,14.79
2019-05-18T19:55:49.659Z,14.72
2019-05-18T19:58:20.247Z,14.82
2019-05-18T20:00:50.568Z,14.75
2019-05-18T20:03:21.252Z,14.69
2019-05-18T20:05:51.556Z,14.77
2019-05-18T20:08:21.858Z,14.64
2019-05-18T20:10:52.531Z,14.59
2019-05-18T20:13:23.109Z,14.68
2019-05-18T20:15:53.969Z,14.55
2019-05-18T20:18:24.305Z,14.60
2019-05-18T20:20:54.929Z,14.45
2019-05-18T20:23:26.397Z,14.44
2019-05-18T20:25:56.796Z,14.35
2019-05-18T20:28:28.663Z,14.35
2019-05-18T20:30:58.950Z,14.33
2019-05-18T20:33:30.082Z,14.29
2019-05-18T20:36:01.192Z,14.09
2019-05-18T20:38:31.584Z,13.96
2019-05-18T20:41:02.321Z,13.94
2019-05-18T20:43:32.865Z,13.78
2019-05-18T20:46:03.212Z,13.74
2019-05-18T20:48:33.498Z,13.83
2019-05-18T20:51:04.831Z,13.76
2019-05-18T20:53:35.261Z,13.66
2019-05-18T20:56:06.053Z,13.59
2019-05-18T20:58:39.967Z,13.59
2019-05-18T21:01:08.818Z,13.76
2019-05-18T21:03:39.729Z,13.70
2019-05-18T21:06:10.105Z,13.59
2019-05-18T21:08:40.417Z,13.65
2019-05-18T21:11:12.036Z,13.70
2019-05-18T21:13:42.457Z,13.79
2019-05-18T21:16:15.147Z,13.92
2019-05-18T21:18:45.864Z,13.86
2019-05-18T21:21:16.282Z,13.70
2019-05-18T21:23:46.776Z,13.61
2019-05-18T21:26:17.295Z,13.53
2019-05-18T21:28:56.445Z,13.35
2019-05-18T21:31:20.790Z,13.34
2019-05-18T21:33:51.183Z,13.24
2019-05-18T21:36:21.814Z,13.25
2019-05-18T21:38:52.078Z,13.16
2019-05-18T21:41:22.970Z,13.32
2019-05-18T21:43:53.985Z,13.60
2019-05-18T21:46:24.452Z,13.48
2019-05-18T21:48:55.311Z,13.25
2019-05-18T21:51:25.683Z,13.17
2019-05-18T21:53:56.714Z,13.24
2019-05-18T21:56:27.933Z,13.08
2019-05-18T21:59:10.590Z,12.88
2019-05-18T22:01:30.777Z,12.71
2019-05-18T22:04:01.980Z,12.78
2019-05-18T22:06:32.446Z,12.92
2019-05-18T22:09:04.400Z,12.76
2019-05-18T22:11:35.962Z,12.71
2019-05-18T22:14:07.195Z,12.62
2019-05-18T22:16:39.478Z,12.56
2019-05-18T22:19:09.887Z,12.57
2019-05-18T22:21:41.157Z,12.75
2019-05-18T22:24:13.158Z,12.55
2019-05-18T22:26:44.965Z,12.55
2019-05-18T22:29:15.374Z,12.54
2019-05-18T22:31:45.681Z,12.54
2019-05-18T22:34:16.453Z,12.69
2019-05-18T22:36:47.693Z,12.40
2019-05-18T22:39:18.214Z,12.21
2019-05-18T22:41:49.444Z,12.07
2019-05-18T22:44:20.278Z,12.18
2019-05-18T22:46:52.556Z,12.06
2019-05-18T22:49:22.934Z,12.16
2019-05-18T22:51:53.718Z,12.16
2019-05-18T22:54:24.463Z,12.04
2019-05-18T22:56:55.587Z,11.95
2019-05-18T22:59:26.736Z,11.92
2019-05-18T23:01:57.153Z,11.88
2019-05-18T23:04:27.906Z,11.88
2019-05-18T23:07:00.127Z,11.89
2019-05-18T23:09:31.813Z,11.85
2019-05-18T23:12:02.963Z,11.83
2019-05-18T23:14:33.369Z,11.87
2019-05-18T23:17:04.725Z,11.89
2019-05-18T23:19:35.136Z,11.82
2019-05-18T23:22:05.469Z,11.73
2019-05-18T23:24:35.901Z,11.70
2019-05-18T23:27:06.518Z,11.65
2019-05-18T23:29:36.891Z,11.65
2019-05-18T23:32:07.245Z,11.59
2019-05-18T23:34:37.923Z,11.57
2019-05-18T23:37:10.169Z,11.61
2019-05-18T23:39:44.379Z,11.48
2019-05-18T23:42:16.248Z,11.43
2019-05-18T23:44:46.591Z,11.40
2019-05-18T23:47:17.850Z,11.35
2019-05-18T23:49:48.631Z,11.31
2019-05-18T23:52:19.884Z,11.28
2019-05-18T23:54:50.213Z,11.20
2019-05-18T23:57:20.955Z,11.19
2019-05-18T23:59:53.013Z,11.15
